Time;durP1;ratioP1;P1;durP2;ratioP2;P2;SDS_P1;SDS_P2;PMS_P1;PMS_P2;Temp;Humidity;BMP_temperature;BMP_pressure;BME280_temperature;BME280_humidity;BME280_pressure;Samples;Min_cycle;Max_cycle;Signal;HPM_P1;HPM_P2
2023/12/12 00:01:23;;;;;;;52.90;22.75;;;6.90;99.90;;;;;;4919658;29;21618;-73
2023/12/12 00:03:50;;;;;;;53.88;22.45;;;6.80;99.90;;;;;;4932647;28;20803;-73
2023/12/12 00:06:18;;;;;;;56.72;23.48;;;6.80;99.90;;;;;;4933939;28;20489;-73
2023/12/12 00:08:45;;;;;;;53.20;23.55;;;6.80;99.90;;;;;;4913513;28;20058;-73
2023/12/12 00:11:12;;;;;;;58.40;23.38;;;6.80;99.90;;;;;;4935919;28;20047;-73
2023/12/12 00:13:39;;;;;;;47.65;22.95;;;6.80;99.90;;;;;;4929171;28;20039;-73
2023/12/12 00:16:07;;;;;;;51.17;24.13;;;6.80;99.90;;;;;;4917454;28;20060;-73
2023/12/12 00:18:37;;;;;;;57.42;23.60;;;6.80;99.90;;;;;;4930847;28;20077;-72
2023/12/12 00:21:05;;;;;;;53.65;20.67;;;6.80;99.90;;;;;;4928283;28;20043;-73
2023/12/12 00:23:32;;;;;;;68.13;24.45;;;6.80;99.90;;;;;;4923505;28;20457;-72
2023/12/12 00:25:59;;;;;;;53.45;23.67;;;6.80;99.90;;;;;;4935262;28;20098;-73
2023/12/12 00:28:26;;;;;;;49.55;21.95;;;6.80;99.90;;;;;;4923013;28;20111;-73
2023/12/12 00:30:53;;;;;;;62.45;22.77;;;6.80;99.90;;;;;;4930524;28;20055;-73
2023/12/12 00:33:20;;;;;;;58.38;21.52;;;6.90;99.90;;;;;;4923054;28;20059;-74
2023/12/12 00:35:48;;;;;;;52.78;22.45;;;6.90;99.90;;;;;;4934175;28;20055;-74
2023/12/12 00:38:15;;;;;;;45.55;21.35;;;6.80;99.90;;;;;;4916195;28;20047;-73
2023/12/12 00:40:52;;;;;;;53.65;20.20;;;6.90;99.90;;;;;;4927742;28;20047;-73
2023/12/12 00:43:20;;;;;;;48.22;20.58;;;6.90;99.90;;;;;;4934496;28;20141;-72
2023/12/12 00:45:47;;;;;;;48.55;22.73;;;6.80;99.90;;;;;;4914560;28;20071;-74
2023/12/12 00:48:14;;;;;;;48.10;20.17;;;6.80;99.90;;;;;;4904785;28;20532;-72
2023/12/12 00:50:41;;;;;;;49.28;20.52;;;6.80;99.90;;;;;;4920618;28;20043;-73
2023/12/12 00:53:07;;;;;;;43.40;20.40;;;6.80;99.90;;;;;;4933725;28;20083;-73
2023/12/12 00:55:34;;;;;;;42.15;18.63;;;6.90;99.90;;;;;;4903199;28;20058;-72
2023/12/12 00:58:01;;;;;;;38.28;18.83;;;6.80;99.90;;;;;;4931087;28;20055;-73
2023/12/12 01:00:28;;;;;;;37.42;18.13;;;6.80;99.90;;;;;;4911670;28;20102;-72
2023/12/12 01:02:55;;;;;;;34.78;17.88;;;6.80;99.90;;;;;;4924731;28;20465;-73
2023/12/12 01:05:22;;;;;;;47.65;19.42;;;6.80;99.90;;;;;;4930681;28;20122;-72
2023/12/12 01:07:49;;;;;;;39.28;17.50;;;6.80;99.90;;;;;;4930189;28;20548;-73
2023/12/12 01:10:16;;;;;;;33.80;16.85;;;6.80;99.90;;;;;;4928311;28;20063;-72
2023/12/12 01:12:43;;;;;;;38.13;16.98;;;6.80;99.90;;;;;;4929216;28;20070;-72
2023/12/12 01:15:10;;;;;;;32.17;16.13;;;6.80;99.90;;;;;;4921110;28;20049;-75
2023/12/12 01:17:37;;;;;;;43.45;17.08;;;6.90;99.90;;;;;;4924162;28;20047;-72
2023/12/12 01:20:07;;;;;;;42.33;16.27;;;6.90;99.90;;;;;;4925643;28;20043;-74
2023/12/12 01:22:34;;;;;;;36.28;17.02;;;6.90;99.90;;;;;;4924417;28;20054;-72
2023/12/12 01:25:02;;;;;;;37.38;18.20;;;6.90;99.90;;;;;;4928914;28;20180;-73
2023/12/12 01:27:30;;;;;;;35.70;17.20;;;6.90;99.90;;;;;;4900800;28;20043;-72
2023/12/12 01:29:58;;;;;;;34.60;15.73;;;6.90;99.90;;;;;;4909892;28;20039;-73
2023/12/12 01:32:25;;;;;;;29.48;16.10;;;6.90;99.90;;;;;;4929323;28;20035;-72
2023/12/12 01:34:53;;;;;;;30.75;17.08;;;7.00;99.90;;;;;;4931691;28;20913;-72
2023/12/12 01:37:20;;;;;;;31.13;17.15;;;6.90;99.90;;;;;;4914503;28;21052;-72
2023/12/12 01:39:46;;;;;;;44.67;17.98;;;6.90;99.90;;;;;;4923898;28;20055;-73
2023/12/12 01:42:13;;;;;;;34.95;16.83;;;6.90;99.90;;;;;;4915796;28;20049;-73
2023/12/12 01:44:40;;;;;;;33.85;16.67;;;6.90;99.90;;;;;;4921137;28;20048;-72
2023/12/12 01:47:08;;;;;;;39.63;16.88;;;6.90;99.90;;;;;;4930926;28;20378;-71
2023/12/12 01:49:35;;;;;;;40.50;17.58;;;6.90;99.90;;;;;;4924104;28;20681;-72
2023/12/12 01:52:03;;;;;;;36.72;18.38;;;6.90;99.90;;;;;;4928392;28;20047;-71
2023/12/12 01:54:30;;;;;;;33.90;17.85;;;7.00;99.90;;;;;;4924892;28;20055;-71
2023/12/12 01:56:58;;;;;;;34.97;18.45;;;7.00;99.90;;;;;;4926158;28;20107;-73
2023/12/12 01:59:25;;;;;;;38.28;20.40;;;7.00;99.90;;;;;;4919082;28;20682;-72
2023/12/12 02:01:53;;;;;;;45.17;22.15;;;7.00;99.90;;;;;;4930089;28;20055;-71
2023/12/12 02:04:20;;;;;;;37.80;19.50;;;7.00;99.90;;;;;;4915433;28;20051;-72
2023/12/12 02:06:49;;;;;;;45.40;20.83;;;7.00;99.90;;;;;;4922989;28;21307;-73
2023/12/12 02:09:16;;;;;;;49.92;22.45;;;7.00;99.90;;;;;;4916505;29;20039;-72
2023/12/12 02:11:44;;;;;;;68.80;27.80;;;7.00;99.90;;;;;;4924907;28;20052;-72
2023/12/12 02:14:11;;;;;;;74.78;29.00;;;7.00;99.90;;;;;;4931581;28;20740;-72
2023/12/12 02:16:38;;;;;;;91.43;33.33;;;7.10;99.90;;;;;;4923515;28;20047;-72
2023/12/12 02:19:05;;;;;;;99.18;33.42;;;7.10;99.90;;;;;;4930147;28;20079;-73
2023/12/12 02:21:32;;;;;;;104.32;39.20;;;7.10;99.90;;;;;;4916671;28;20063;-71
2023/12/12 02:24:00;;;;;;;122.75;40.30;;;7.20;99.90;;;;;;4922851;28;20047;-72
2023/12/12 02:26:27;;;;;;;105.43;39.25;;;7.20;99.90;;;;;;4936094;28;20062;-73
2023/12/12 02:28:54;;;;;;;110.18;39.22;;;7.30;99.90;;;;;;4925749;28;20040;-73
2023/12/12 02:31:21;;;;;;;122.05;40.78;;;7.30;99.90;;;;;;4930403;28;20078;-72
2023/12/12 02:33:48;;;;;;;117.97;40.03;;;7.20;99.90;;;;;;4917487;28;20075;-72
2023/12/12 02:36:15;;;;;;;114.57;43.63;;;7.20;99.90;;;;;;4934753;28;20125;-72
2023/12/12 02:38:42;;;;;;;99.68;42.35;;;7.20;99.90;;;;;;4925847;28;20051;-72
2023/12/12 02:41:09;;;;;;;121.90;44.53;;;7.20;99.90;;;;;;4931100;28;20044;-72
2023/12/12 02:43:37;;;;;;;124.45;48.65;;;7.20;99.90;;;;;;4924818;28;20040;-75
2023/12/12 02:46:04;;;;;;;119.35;45.22;;;7.20;99.90;;;;;;4929228;28;20039;-74
2023/12/12 02:48:31;;;;;;;101.70;44.00;;;7.20;99.90;;;;;;4912586;28;20185;-70
2023/12/12 02:50:59;;;;;;;95.88;40.53;;;7.20;99.90;;;;;;4917630;28;20047;-72
2023/12/12 02:53:26;;;;;;;110.00;43.25;;;7.30;99.90;;;;;;4915423;28;20051;-73
2023/12/12 02:55:53;;;;;;;100.70;39.63;;;7.30;99.90;;;;;;4927111;28;20046;-71
2023/12/12 02:58:19;;;;;;;100.18;44.22;;;7.30;99.90;;;;;;4927597;28;20106;-75
2023/12/12 03:00:46;;;;;;;99.38;41.55;;;7.30;99.90;;;;;;4926178;28;20199;-71
2023/12/12 03:03:13;;;;;;;95.30;42.70;;;7.40;99.90;;;;;;4930124;28;20398;-72
2023/12/12 03:05:40;;;;;;;102.75;41.03;;;7.40;99.90;;;;;;4911560;28;20047;-73
2023/12/12 03:08:07;;;;;;;99.53;43.58;;;7.40;99.90;;;;;;4931930;28;20388;-72
2023/12/12 03:10:34;;;;;;;101.82;41.92;;;7.40;99.90;;;;;;4918834;28;20050;-72
2023/12/12 03:13:01;;;;;;;105.10;41.70;;;7.50;99.90;;;;;;4916000;28;20134;-73
2023/12/12 03:15:28;;;;;;;104.93;42.20;;;7.50;99.90;;;;;;4931690;28;20581;-73
2023/12/12 03:17:55;;;;;;;90.63;38.50;;;7.40;99.90;;;;;;4918654;28;20043;-73
2023/12/12 03:20:22;;;;;;;94.70;40.47;;;7.40;99.90;;;;;;4933317;28;20178;-72
2023/12/12 03:22:48;;;;;;;95.55;40.53;;;7.40;99.90;;;;;;4926573;28;20047;-71
2023/12/12 03:25:15;;;;;;;102.63;40.78;;;7.40;99.90;;;;;;4931009;28;20043;-71
2023/12/12 03:27:42;;;;;;;93.28;40.28;;;7.40;99.90;;;;;;4917814;28;20050;-70
2023/12/12 03:30:09;;;;;;;102.75;41.00;;;7.40;99.90;;;;;;4924643;28;20070;-71
2023/12/12 03:32:36;;;;;;;94.85;40.05;;;7.50;99.90;;;;;;4925865;28;20050;-72
2023/12/12 03:35:04;;;;;;;94.15;37.95;;;7.50;99.90;;;;;;4932167;28;20130;-71
2023/12/12 03:37:31;;;;;;;97.10;39.85;;;7.40;99.90;;;;;;4932927;28;20135;-72
2023/12/12 03:39:58;;;;;;;89.85;38.20;;;7.40;99.90;;;;;;4915284;28;20047;-71
2023/12/12 03:42:25;;;;;;;71.47;33.78;;;7.40;99.90;;;;;;4920860;28;20073;-72
2023/12/12 03:44:52;;;;;;;78.88;35.97;;;7.40;99.90;;;;;;4925618;28;20051;-72
2023/12/12 03:47:19;;;;;;;87.63;35.40;;;7.40;99.90;;;;;;4929253;28;20063;-73
2023/12/12 03:49:46;;;;;;;74.35;37.10;;;7.30;99.90;;;;;;4922473;28;20122;-76
2023/12/12 03:52:13;;;;;;;76.68;35.35;;;7.40;99.90;;;;;;4932387;28;20190;-73
2023/12/12 03:54:40;;;;;;;71.20;35.28;;;7.30;99.90;;;;;;4927325;28;20051;-74
2023/12/12 03:57:06;;;;;;;71.25;31.25;;;7.30;99.90;;;;;;4927018;28;20070;-73
2023/12/12 03:59:34;;;;;;;72.35;32.83;;;7.30;99.90;;;;;;4913051;28;20481;-73
2023/12/12 04:02:00;;;;;;;66.63;32.40;;;7.30;99.90;;;;;;4924339;28;20054;-73
2023/12/12 04:04:27;;;;;;;63.08;31.23;;;7.30;99.90;;;;;;4931431;28;20055;-73
2023/12/12 04:06:54;;;;;;;62.60;30.63;;;7.30;99.90;;;;;;4929026;28;20047;-73
2023/12/12 04:09:21;;;;;;;68.45;29.02;;;7.30;99.90;;;;;;4929610;28;20149;-73
2023/12/12 04:11:48;;;;;;;63.85;27.60;;;7.30;99.90;;;;;;4922223;28;20126;-73
2023/12/12 04:14:15;;;;;;;56.55;27.17;;;7.30;99.90;;;;;;4928618;28;20054;-74
2023/12/12 04:16:42;;;;;;;65.03;29.85;;;7.40;99.90;;;;;;4928069;28;20660;-75
2023/12/12 04:19:08;;;;;;;58.15;30.30;;;7.40;99.90;;;;;;4926697;28;20055;-74
2023/12/12 04:21:36;;;;;;;60.78;30.02;;;7.40;99.90;;;;;;4929916;28;20051;-73
2023/12/12 04:24:03;;;;;;;58.30;28.25;;;7.40;99.90;;;;;;4912145;28;20279;-72
2023/12/12 04:26:30;;;;;;;43.55;26.52;;;7.50;99.90;;;;;;4919799;28;20051;-74
2023/12/12 04:28:59;;;;;;;51.80;25.83;;;7.40;99.90;;;;;;4926428;28;20548;-72
2023/12/12 04:31:27;;;;;;;52.92;24.25;;;7.40;99.90;;;;;;4894214;28;20094;-74
2023/12/12 04:33:54;;;;;;;43.42;22.35;;;7.40;99.90;;;;;;4922068;28;20138;-73
2023/12/12 04:36:21;;;;;;;47.83;24.25;;;7.40;99.90;;;;;;4930624;28;20114;-72
2023/12/12 04:38:48;;;;;;;43.50;22.27;;;7.40;99.90;;;;;;4923317;28;20047;-71
2023/12/12 04:41:15;;;;;;;45.70;23.40;;;7.40;99.90;;;;;;4913560;28;20043;-72
2023/12/12 04:43:42;;;;;;;51.20;22.30;;;7.40;99.90;;;;;;4914421;28;20055;-71
2023/12/12 04:46:09;;;;;;;41.90;22.48;;;7.40;99.90;;;;;;4925500;28;20066;-71
2023/12/12 04:48:36;;;;;;;42.13;20.77;;;7.40;99.90;;;;;;4920349;28;20040;-73
2023/12/12 04:51:03;;;;;;;37.95;19.80;;;7.30;99.90;;;;;;4912462;28;20090;-72
2023/12/12 04:53:30;;;;;;;38.60;20.35;;;7.30;99.90;;;;;;4911967;28;20047;-73
2023/12/12 04:55:57;;;;;;;39.58;21.13;;;7.40;99.90;;;;;;4920864;28;20645;-73
2023/12/12 04:58:24;;;;;;;34.47;19.27;;;7.40;99.90;;;;;;4931992;28;20039;-71
2023/12/12 05:00:51;;;;;;;41.72;19.13;;;7.40;99.90;;;;;;4913059;28;20637;-72
2023/12/12 05:03:18;;;;;;;33.15;18.17;;;7.40;99.90;;;;;;4925151;28;20031;-73
2023/12/12 05:05:47;;;;;;;41.78;18.85;;;7.40;99.90;;;;;;4910120;28;20105;-73
2023/12/12 05:08:14;;;;;;;28.17;16.35;;;7.40;99.90;;;;;;4930511;28;20043;-73
2023/12/12 05:10:41;;;;;;;25.27;15.07;;;7.30;99.90;;;;;;4923362;28;20474;-73
2023/12/12 05:13:08;;;;;;;20.75;12.30;;;7.30;99.90;;;;;;4925525;28;20048;-73
2023/12/12 05:15:36;;;;;;;21.10;12.73;;;7.30;99.90;;;;;;4926004;28;20042;-73
2023/12/12 05:18:04;;;;;;;26.50;13.18;;;7.20;99.90;;;;;;4925645;28;20188;-73
2023/12/12 05:20:31;;;;;;;17.40;10.88;;;7.20;99.90;;;;;;4909774;28;20056;-71
2023/12/12 05:22:58;;;;;;;12.45;10.52;;;7.20;99.90;;;;;;4916376;28;20573;-75
2023/12/12 05:25:25;;;;;;;22.10;10.82;;;7.30;99.90;;;;;;4924174;28;20266;-75
2023/12/12 05:27:53;;;;;;;24.30;11.15;;;7.20;99.90;;;;;;4924093;28;20044;-73
2023/12/12 05:30:21;;;;;;;21.85;10.57;;;7.20;99.90;;;;;;4922711;28;20063;-72
2023/12/12 05:32:48;;;;;;;16.23;10.50;;;7.20;99.90;;;;;;4916505;28;20089;-72
2023/12/12 05:35:15;;;;;;;21.27;11.48;;;7.20;99.90;;;;;;4913925;28;20081;-73
2023/12/12 05:37:42;;;;;;;19.02;11.25;;;7.30;99.90;;;;;;4927490;28;20717;-72
2023/12/12 05:40:10;;;;;;;11.43;10.23;;;7.30;99.90;;;;;;4927250;28;20043;-72
2023/12/12 05:42:37;;;;;;;17.83;10.88;;;7.30;99.90;;;;;;4920802;28;20058;-75
2023/12/12 05:45:05;;;;;;;19.10;10.77;;;7.30;99.90;;;;;;4921616;28;20050;-74
2023/12/12 05:47:32;;;;;;;16.13;12.35;;;7.30;99.90;;;;;;4923659;28;20054;-73
2023/12/12 05:49:59;;;;;;;15.15;12.07;;;7.30;99.90;;;;;;4916707;28;20190;-73
2023/12/12 05:52:26;;;;;;;15.57;13.57;;;7.40;99.90;;;;;;4929084;28;20679;-72
2023/12/12 05:54:53;;;;;;;16.15;13.02;;;7.40;99.90;;;;;;4912089;28;20054;-75
2023/12/12 05:57:20;;;;;;;17.63;14.23;;;7.40;99.90;;;;;;4930396;28;20062;-75
2023/12/12 05:59:48;;;;;;;25.40;14.13;;;7.50;99.90;;;;;;4896391;28;20052;-74
2023/12/12 06:02:15;;;;;;;19.80;14.75;;;7.50;99.90;;;;;;4925430;28;20822;-74
2023/12/12 06:04:45;;;;;;;29.15;16.77;;;7.50;99.90;;;;;;4905095;28;20107;-73
2023/12/12 06:07:13;;;;;;;27.52;15.82;;;7.60;99.90;;;;;;4929114;28;20070;-75
2023/12/12 06:09:41;;;;;;;23.77;15.50;;;7.50;99.90;;;;;;4912548;28;20043;-73
2023/12/12 06:12:08;;;;;;;23.95;14.57;;;7.50;99.90;;;;;;4922024;28;20142;-73
2023/12/12 06:14:35;;;;;;;26.02;15.40;;;7.50;99.90;;;;;;4926340;28;20040;-74
2023/12/12 06:17:03;;;;;;;18.95;15.30;;;7.40;99.90;;;;;;4921939;28;20062;-73
2023/12/12 06:19:29;;;;;;;26.25;16.40;;;7.40;99.90;;;;;;4922055;28;20035;-73
2023/12/12 06:21:56;;;;;;;21.77;16.23;;;7.30;99.90;;;;;;4922457;28;20155;-73
2023/12/12 06:24:23;;;;;;;23.98;16.73;;;7.40;99.90;;;;;;4908918;28;20075;-73
2023/12/12 06:26:50;;;;;;;23.20;18.08;;;7.40;99.90;;;;;;4927321;28;20047;-72
2023/12/12 06:29:18;;;;;;;19.95;17.85;;;7.40;99.90;;;;;;4925079;28;20146;-72
2023/12/12 06:31:45;;;;;;;36.90;24.20;;;7.50;99.90;;;;;;4922907;28;20147;-72
2023/12/12 06:34:11;;;;;;;35.53;24.95;;;7.50;99.90;;;;;;4931157;28;20040;-72
2023/12/12 06:36:40;;;;;;;26.83;20.77;;;7.30;99.90;;;;;;4911463;28;20044;-73
2023/12/12 06:39:09;;;;;;;28.90;20.83;;;7.20;99.90;;;;;;4919712;28;20150;-74
2023/12/12 06:41:37;;;;;;;37.67;22.38;;;7.00;99.90;;;;;;4930031;28;20134;-74
2023/12/12 06:44:05;;;;;;;22.33;20.23;;;6.80;99.90;;;;;;4915186;28;20044;-72
2023/12/12 06:46:33;;;;;;;27.45;23.27;;;6.70;99.90;;;;;;4915528;28;20111;-74
2023/12/12 06:49:00;;;;;;;33.72;24.15;;;6.50;99.90;;;;;;4906791;28;20039;-72
2023/12/12 06:51:31;;;;;;;25.83;23.05;;;6.40;99.90;;;;;;4906626;28;20107;-73
2023/12/12 06:53:58;;;;;;;26.77;22.75;;;6.30;99.90;;;;;;4904721;28;20058;-74
2023/12/12 06:56:26;;;;;;;35.20;23.77;;;6.10;99.90;;;;;;4920856;28;20079;-75
2023/12/12 06:58:53;;;;;;;30.42;21.95;;;6.10;99.90;;;;;;4918179;28;20035;-73
2023/12/12 07:01:20;;;;;;;27.58;21.98;;;6.00;99.90;;;;;;4921711;28;20453;-73
2023/12/12 07:03:48;;;;;;;23.73;21.23;;;5.90;99.90;;;;;;4922433;28;20122;-73
2023/12/12 07:06:21;;;;;;;24.48;20.20;;;5.70;99.90;;;;;;4936717;28;20039;-71
2023/12/12 07:08:48;;;;;;;30.75;22.80;;;5.70;99.90;;;;;;4915338;28;20056;-71
2023/12/12 07:11:18;;;;;;;32.80;24.23;;;5.60;99.90;;;;;;4916420;28;20035;-74
2023/12/12 07:13:45;;;;;;;36.00;24.27;;;5.60;99.90;;;;;;4912780;28;20078;-73
2023/12/12 07:16:12;;;;;;;27.52;24.48;;;5.40;99.90;;;;;;4927138;28;20066;-74
2023/12/12 07:18:39;;;;;;;36.42;24.42;;;5.30;99.90;;;;;;4924050;28;20506;-75
2023/12/12 07:21:07;;;;;;;33.72;24.83;;;5.20;99.90;;;;;;4928384;28;20051;-73
2023/12/12 07:23:34;;;;;;;34.05;24.48;;;5.10;99.90;;;;;;4912487;28;20158;-74
2023/12/12 07:26:01;;;;;;;53.22;26.45;;;5.00;99.90;;;;;;4929048;28;20050;-75
2023/12/12 07:28:28;;;;;;;35.55;24.55;;;5.00;99.90;;;;;;4928891;28;20895;-75
2023/12/12 07:30:55;;;;;;;36.58;24.55;;;4.90;99.90;;;;;;4929415;28;20043;-75
2023/12/12 07:33:24;;;;;;;39.88;26.05;;;4.90;99.90;;;;;;4925770;28;20071;-76
2023/12/12 07:35:59;;;;;;;38.05;28.30;;;4.70;99.90;;;;;;4918354;28;20039;-74
2023/12/12 07:38:26;;;;;;;40.97;27.40;;;4.50;99.90;;;;;;4908692;28;20109;-76
2023/12/12 07:40:54;;;;;;;35.95;27.60;;;4.50;99.90;;;;;;4925554;28;20048;-75
2023/12/12 07:43:22;;;;;;;44.53;27.15;;;4.40;99.90;;;;;;4927153;28;20066;-76
2023/12/12 07:45:50;;;;;;;47.28;28.25;;;4.40;99.90;;;;;;4930143;28;20109;-74
2023/12/12 07:48:18;;;;;;;43.80;33.10;;;4.30;99.90;;;;;;4910681;28;20071;-76
2023/12/12 07:50:45;;;;;;;43.10;32.15;;;4.30;99.90;;;;;;4929278;28;20043;-77
2023/12/12 07:53:12;;;;;;;51.13;35.03;;;4.20;99.90;;;;;;4924629;28;20057;-76
2023/12/12 07:55:39;;;;;;;39.25;33.90;;;4.20;99.90;;;;;;4917631;28;20073;-76
2023/12/12 07:58:07;;;;;;;41.25;33.75;;;4.20;99.90;;;;;;4930418;28;20099;-76
2023/12/12 08:00:34;;;;;;;37.47;27.73;;;4.20;99.90;;;;;;4925338;28;20127;-75
2023/12/12 08:03:01;;;;;;;39.17;29.65;;;4.20;99.90;;;;;;4925899;28;20039;-76
2023/12/12 08:05:28;;;;;;;49.85;28.92;;;4.10;99.90;;;;;;4925579;28;20748;-76
2023/12/12 08:07:55;;;;;;;70.97;47.08;;;4.10;99.90;;;;;;4923684;28;20697;-75
2023/12/12 08:10:22;;;;;;;36.03;28.23;;;4.00;99.90;;;;;;4917251;28;20056;-76
2023/12/12 08:12:52;;;;;;;42.90;26.83;;;4.20;99.90;;;;;;4924120;28;20083;-75
2023/12/12 08:15:20;;;;;;;41.67;26.80;;;4.10;99.90;;;;;;4928015;28;20067;-75
2023/12/12 08:17:47;;;;;;;34.10;23.92;;;4.20;99.90;;;;;;4932935;28;20063;-75
2023/12/12 08:20:14;;;;;;;31.10;22.02;;;4.20;99.90;;;;;;4926950;28;20533;-75
2023/12/12 08:22:44;;;;;;;28.85;19.92;;;4.00;99.90;;;;;;4920725;28;20726;-77
2023/12/12 08:25:11;;;;;;;32.97;19.65;;;4.00;99.90;;;;;;4909520;28;20165;-76
2023/12/12 08:27:39;;;;;;;32.63;20.52;;;4.10;99.90;;;;;;4911117;28;20122;-75
2023/12/12 08:30:07;;;;;;;31.30;19.42;;;4.10;99.90;;;;;;4913140;28;20583;-76
2023/12/12 08:32:37;;;;;;;36.60;23.27;;;4.20;99.90;;;;;;4917978;28;20077;-77
2023/12/12 08:35:06;;;;;;;29.33;20.83;;;4.30;99.90;;;;;;4926881;28;20067;-75
2023/12/12 08:37:34;;;;;;;38.00;21.63;;;4.40;99.90;;;;;;4912277;28;20051;-77
2023/12/12 08:40:06;;;;;;;45.28;24.23;;;4.40;99.90;;;;;;4910112;28;20538;-76
2023/12/12 08:42:34;;;;;;;43.58;25.33;;;4.60;99.90;;;;;;4930819;28;21130;-76
2023/12/12 08:45:05;;;;;;;66.25;28.00;;;4.80;99.90;;;;;;4925838;28;20744;-77
2023/12/12 08:47:36;;;;;;;65.63;25.88;;;4.90;99.90;;;;;;4912121;28;20043;-77
2023/12/12 08:50:05;;;;;;;34.63;25.33;;;5.00;99.90;;;;;;4915848;28;20705;-78
2023/12/12 08:52:32;;;;;;;28.50;24.98;;;5.20;99.90;;;;;;4927585;28;20063;-77
2023/12/12 08:55:10;;;;;;;;;;;5.30;99.90;;;;;;4926348;28;20410;-77
2023/12/12 08:57:38;;;;;;;39.25;27.25;;;5.40;99.90;;;;;;4926258;28;20033;-77
2023/12/12 09:00:10;;;;;;;38.67;26.83;;;5.30;99.90;;;;;;4929436;28;20054;-76
2023/12/12 09:02:39;;;;;;;38.95;25.45;;;5.30;99.90;;;;;;4901487;28;20056;-77
2023/12/12 09:05:07;;;;;;;32.05;22.63;;;5.30;99.90;;;;;;4924259;28;20053;-77
2023/12/12 09:07:34;;;;;;;27.98;21.02;;;5.30;99.90;;;;;;4931108;28;20431;-77
2023/12/12 09:10:06;;;;;;;31.08;21.90;;;5.30;99.90;;;;;;4926605;28;20047;-76
2023/12/12 09:12:39;;;;;;;23.35;21.02;;;5.30;99.90;;;;;;4917583;28;20110;-76
2023/12/12 09:15:07;;;;;;;30.38;19.83;;;5.20;99.90;;;;;;4936659;28;20043;-74
2023/12/12 09:17:34;;;;;;;23.63;19.35;;;5.10;99.90;;;;;;4919951;28;20077;-76
2023/12/12 09:20:02;;;;;;;22.30;19.35;;;5.20;99.90;;;;;;4941400;28;20683;-76
2023/12/12 09:22:30;;;;;;;27.55;18.08;;;5.20;99.90;;;;;;4937625;28;20055;-75
2023/12/12 09:25:01;;;;;;;29.00;18.98;;;5.20;99.90;;;;;;4929855;28;20061;-77
2023/12/12 09:27:31;;;;;;;22.33;17.88;;;5.30;99.90;;;;;;4934957;28;20055;-76
2023/12/12 09:29:58;;;;;;;24.90;18.25;;;5.50;99.90;;;;;;4929470;28;20047;-77
2023/12/12 09:32:26;;;;;;;21.02;17.52;;;5.60;99.90;;;;;;4934318;28;20434;-76
2023/12/12 09:34:54;;;;;;;25.83;20.08;;;5.70;99.90;;;;;;4938598;28;20576;-77
2023/12/12 09:37:23;;;;;;;25.25;19.13;;;5.90;99.90;;;;;;4923805;28;20070;-77
2023/12/12 09:39:51;;;;;;;29.17;21.08;;;6.00;99.90;;;;;;4925104;28;20051;-77
2023/12/12 09:42:23;;;;;;;26.48;18.05;;;6.10;99.90;;;;;;4924134;28;20099;-77
2023/12/12 09:45:00;;;;;;;26.50;17.75;;;6.30;99.90;;;;;;4917088;28;20155;-74
2023/12/12 09:47:29;;;;;;;18.95;17.02;;;6.40;99.90;;;;;;4918466;28;20047;-75
2023/12/12 09:50:00;;;;;;;20.20;16.83;;;6.60;99.90;;;;;;4908645;28;20047;-73
2023/12/12 09:52:31;;;;;;;21.50;18.23;;;6.70;99.90;;;;;;4919343;28;20143;-74
2023/12/12 09:54:59;;;;;;;61.13;34.75;;;6.70;99.90;;;;;;4932290;28;20074;-74
2023/12/12 09:57:30;;;;;;;41.15;25.02;;;6.80;99.90;;;;;;4915990;28;20078;-74
2023/12/12 09:59:58;;;;;;;29.17;24.02;;;6.90;99.90;;;;;;4932004;28;20106;-73
2023/12/12 10:02:34;;;;;;;26.80;17.92;;;7.00;99.90;;;;;;4909099;28;20046;-73
2023/12/12 10:05:04;;;;;;;22.52;18.63;;;7.10;99.90;;;;;;4928326;28;20052;-72
2023/12/12 10:07:33;;;;;;;25.13;18.67;;;7.30;99.90;;;;;;4935127;28;20078;-72
2023/12/12 10:10:07;;;;;;;25.30;20.27;;;7.40;99.90;;;;;;4913500;28;20137;-73
2023/12/12 10:12:35;;;;;;;25.90;23.10;;;7.50;99.90;;;;;;4916518;28;20051;-72
2023/12/12 10:15:02;;;;;;;30.23;19.48;;;7.50;99.90;;;;;;4911958;28;20418;-75
2023/12/12 10:17:38;;;;;;;33.40;17.58;;;7.50;99.90;;;;;;4911447;28;20050;-76
2023/12/12 10:20:05;;;;;;;20.42;18.45;;;7.80;99.90;;;;;;4913104;28;20138;-74
2023/12/12 10:22:33;;;;;;;24.60;19.88;;;7.80;99.90;;;;;;4923249;28;20070;-74
2023/12/12 10:25:11;;;;;;;24.10;19.95;;;8.00;99.90;;;;;;4925489;28;20047;-74
2023/12/12 10:27:42;;;;;;;37.25;21.20;;;8.00;99.90;;;;;;4910495;28;20051;-74
2023/12/12 10:30:12;;;;;;;23.25;20.40;;;7.90;99.90;;;;;;4925717;28;20577;-74
2023/12/12 10:32:39;;;;;;;30.92;24.10;;;8.00;99.90;;;;;;4919581;28;20059;-75
2023/12/12 10:35:06;;;;;;;25.70;17.05;;;8.00;99.90;;;;;;4911008;28;20043;-74
2023/12/12 10:37:33;;;;;;;21.08;16.48;;;8.00;99.90;;;;;;4913428;28;20071;-74
2023/12/12 10:40:24;;;;;;;17.90;15.70;;;8.00;99.90;;;;;;4928691;28;20099;-73
2023/12/12 10:42:51;;;;;;;31.90;17.20;;;8.10;99.90;;;;;;4930475;28;20058;-73
2023/12/12 10:45:23;;;;;;;21.90;17.40;;;8.20;99.90;;;;;;4930084;28;20055;-75
2023/12/12 10:47:51;;;;;;;20.00;17.92;;;8.40;99.90;;;;;;4916650;28;20047;-73
2023/12/12 10:50:19;;;;;;;26.90;19.35;;;8.50;99.90;;;;;;4931684;28;20953;-73
2023/12/12 10:52:48;;;;;;;22.30;18.02;;;8.60;99.90;;;;;;4929329;28;20055;-74
2023/12/12 10:55:16;;;;;;;24.98;22.15;;;8.50;99.90;;;;;;4931529;28;20051;-73
2023/12/12 10:57:47;;;;;;;23.35;20.95;;;8.50;99.90;;;;;;4908352;28;20060;-74
2023/12/12 11:00:15;;;;;;;24.70;21.00;;;8.50;99.90;;;;;;4918071;28;20099;-74
2023/12/12 11:02:46;;;;;;;25.00;18.98;;;8.50;99.90;;;;;;4929839;28;20051;-75
2023/12/12 11:05:14;;;;;;;31.13;20.98;;;8.60;99.90;;;;;;4922834;28;20051;-75
2023/12/12 11:07:46;;;;;;;23.05;20.80;;;8.80;99.90;;;;;;4920604;28;20264;-73
2023/12/12 11:10:19;;;;;;;29.20;23.10;;;8.80;99.90;;;;;;4919520;28;20047;-73
2023/12/12 11:12:58;;;;;;;23.33;20.90;;;8.80;99.90;;;;;;4907954;28;20503;-73
2023/12/12 11:15:27;;;;;;;28.70;22.65;;;8.90;99.90;;;;;;4930825;28;20056;-73
2023/12/12 11:17:56;;;;;;;25.23;21.10;;;8.90;99.90;;;;;;4920978;28;20058;-73
2023/12/12 11:20:24;;;;;;;24.92;22.40;;;9.00;99.90;;;;;;4917524;28;20159;-75
2023/12/12 11:22:52;;;;;;;25.70;23.17;;;9.00;99.90;;;;;;4897132;28;20047;-74
2023/12/12 11:25:21;;;;;;;25.80;21.40;;;9.00;99.90;;;;;;4912188;28;23051;-73
2023/12/12 11:27:56;;;;;;;27.83;24.70;;;9.20;99.90;;;;;;4929409;28;21017;-74
2023/12/12 11:30:34;;;;;;;27.23;24.60;;;9.30;99.90;;;;;;4906212;28;20055;-74
2023/12/12 11:33:01;;;;;;;25.67;23.15;;;9.50;99.90;;;;;;4936426;28;20036;-72
2023/12/12 11:35:31;;;;;;;28.67;26.08;;;9.60;99.90;;;;;;4920861;29;20051;-73
2023/12/12 11:38:04;;;;;;;26.75;24.10;;;9.80;99.90;;;;;;4916044;28;20043;-72
2023/12/12 11:40:33;;;;;;;29.85;27.05;;;9.80;99.90;;;;;;4930088;28;20047;-74
2023/12/12 11:43:19;;;;;;;30.92;28.38;;;9.90;99.90;;;;;;4936257;28;20047;-73
2023/12/12 11:45:46;;;;;;;26.92;24.08;;;10.00;99.90;;;;;;4911586;28;20066;-73
2023/12/12 11:48:15;;;;;;;27.60;24.85;;;10.00;99.90;;;;;;4911415;28;20048;-73
2023/12/12 11:50:42;;;;;;;32.97;30.10;;;10.00;99.90;;;;;;4916044;28;20061;-74
2023/12/12 11:53:09;;;;;;;29.50;27.23;;;10.10;99.90;;;;;;4910662;28;20051;-72
2023/12/12 11:55:42;;;;;;;31.02;28.40;;;9.90;99.90;;;;;;4924399;28;20047;-73
2023/12/12 11:58:10;;;;;;;29.58;27.27;;;10.00;99.90;;;;;;4927502;28;20051;-74
2023/12/12 12:00:43;;;;;;;30.42;27.67;;;10.10;99.90;;;;;;4918396;28;20222;-72
2023/12/12 12:03:10;;;;;;;30.02;27.55;;;10.10;99.90;;;;;;4924806;28;20139;-73
2023/12/12 12:05:37;;;;;;;29.83;27.30;;;10.20;99.90;;;;;;4913745;28;20055;-73
2023/12/12 12:08:05;;;;;;;30.08;27.60;;;10.30;99.90;;;;;;4905637;28;20054;-74
2023/12/12 12:10:32;;;;;;;33.42;30.35;;;10.30;99.90;;;;;;4935872;28;20103;-73
2023/12/12 12:13:00;;;;;;;32.90;29.67;;;10.30;99.90;;;;;;4901983;29;20155;-73
2023/12/12 12:15:28;;;;;;;37.15;33.70;;;10.20;99.90;;;;;;4924634;28;20051;-73
2023/12/12 12:17:59;;;;;;;35.75;32.55;;;10.30;99.90;;;;;;4924985;28;20046;-74
2023/12/12 12:20:26;;;;;;;37.85;35.13;;;10.30;99.90;;;;;;4930293;28;20565;-73
2023/12/12 12:22:53;;;;;;;39.35;36.08;;;10.30;99.90;;;;;;4926060;28;20066;-74
2023/12/12 12:25:22;;;;;;;37.83;35.00;;;10.30;99.90;;;;;;4924609;28;20054;-75
2023/12/12 12:27:52;;;;;;;32.33;30.10;;;10.30;99.90;;;;;;4893883;28;20130;-73
2023/12/12 12:30:20;;;;;;;42.72;38.90;;;10.40;99.90;;;;;;4911978;28;20047;-73
2023/12/12 12:33:09;;;;;;;43.80;41.10;;;10.50;99.90;;;;;;4915121;28;20048;-73
2023/12/12 12:35:37;;;;;;;41.78;38.92;;;10.50;99.90;;;;;;4926006;28;20045;-74
2023/12/12 12:38:26;;;;;;;45.13;41.83;;;10.40;99.90;;;;;;4912198;28;20035;-74
2023/12/12 12:40:54;;;;;;;37.45;34.47;;;10.30;99.90;;;;;;4910953;28;20676;-74